createdAt,value
2023-05-11T00:00:13.829Z,45.37
2023-05-11T00:01:13.878Z,45.34
2023-05-11T00:02:13.945Z,45.35
2023-05-11T00:03:14.028Z,45.32
2023-05-11T00:04:13.919Z,45.29
2023-05-11T00:05:13.903Z,45.32
2023-05-11T00:06:13.901Z,45.30
2023-05-11T00:07:13.900Z,45.32
2023-05-11T00:08:15.596Z,45.29
2023-05-11T00:09:13.934Z,45.28
2023-05-11T00:10:13.901Z,45.25
2023-05-11T00:11:13.902Z,45.29
2023-05-11T00:12:13.888Z,45.28
2023-05-11T00:13:13.873Z,45.26
2023-05-11T00:14:13.873Z,45.26
2023-05-11T00:15:13.860Z,45.24
2023-05-11T00:16:13.899Z,45.24
2023-05-11T00:17:13.865Z,45.18
2023-05-11T00:18:13.858Z,45.26
2023-05-11T00:19:13.851Z,45.22
2023-05-11T00:20:13.827Z,45.18
2023-05-11T00:21:13.809Z,45.21
2023-05-11T00:22:13.819Z,45.18
2023-05-11T00:23:13.807Z,45.18
2023-05-11T00:24:13.771Z,45.20
2023-05-11T00:25:13.801Z,45.18
2023-05-11T00:26:13.805Z,45.18
2023-05-11T00:27:13.751Z,45.17
2023-05-11T00:28:13.769Z,45.15
2023-05-11T00:29:13.818Z,45.16
2023-05-11T00:30:13.721Z,45.13
2023-05-11T00:31:13.738Z,45.17
2023-05-11T00:32:13.734Z,45.14
2023-05-11T00:33:13.748Z,45.13
2023-05-11T00:34:13.705Z,45.11
2023-05-11T00:35:13.718Z,45.13
2023-05-11T00:36:13.706Z,45.09
2023-05-11T00:37:13.696Z,45.12
2023-05-11T00:38:13.666Z,45.11
2023-05-11T00:39:14.020Z,45.07
2023-05-11T00:40:13.647Z,45.11
2023-05-11T00:41:13.678Z,45.07
2023-05-11T00:42:13.692Z,45.10
2023-05-11T00:43:13.647Z,45.03
2023-05-11T00:44:13.651Z,45.03
2023-05-11T00:45:13.710Z,45.05
2023-05-11T00:46:13.665Z,45.04
2023-05-11T00:47:13.621Z,45.05
2023-05-11T00:48:13.630Z,45.02
2023-05-11T00:49:13.651Z,45.01
2023-05-11T00:50:13.587Z,45.04
2023-05-11T00:51:13.581Z,44.99
2023-05-11T00:52:13.588Z,44.99
2023-05-11T00:53:13.582Z,45.00
2023-05-11T00:54:13.579Z,45.01
2023-05-11T00:55:13.580Z,44.96
2023-05-11T00:56:13.552Z,44.98
2023-05-11T00:57:13.553Z,44.92
2023-05-11T00:58:13.566Z,45.00
2023-05-11T00:59:14.047Z,44.96
2023-05-11T01:00:13.536Z,44.95
2023-05-11T01:01:13.584Z,44.93
2023-05-11T01:02:14.081Z,44.93
2023-05-11T01:03:13.543Z,44.91
2023-05-11T01:04:13.518Z,44.94
2023-05-11T01:05:13.502Z,44.93
2023-05-11T01:06:13.459Z,44.88
2023-05-11T01:07:13.467Z,44.89
2023-05-11T01:08:13.474Z,44.85
2023-05-11T01:09:13.446Z,44.87
2023-05-11T01:10:13.438Z,44.84
2023-05-11T01:11:13.484Z,44.84
2023-05-11T01:12:13.421Z,44.84
2023-05-11T01:13:13.425Z,44.80
2023-05-11T01:14:13.445Z,44.78
2023-05-11T01:15:13.434Z,44.83
2023-05-11T01:16:13.449Z,44.84
2023-05-11T01:17:13.405Z,44.81
2023-05-11T01:18:13.420Z,44.83
2023-05-11T01:19:13.415Z,44.78
2023-05-11T01:20:13.396Z,44.77
2023-05-11T01:21:13.367Z,44.78
2023-05-11T01:22:13.362Z,44.75
2023-05-11T01:23:13.381Z,44.76
2023-05-11T01:24:13.555Z,44.73
2023-05-11T01:25:13.381Z,44.73
2023-05-11T01:26:13.336Z,44.73
2023-05-11T01:27:13.359Z,44.68
2023-05-11T01:28:13.304Z,44.71
2023-05-11T01:29:13.324Z,44.71
2023-05-11T01:30:13.317Z,44.71
2023-05-11T01:31:13.300Z,44.69
2023-05-11T01:32:13.445Z,44.66
2023-05-11T01:33:13.327Z,44.69
2023-05-11T01:34:13.294Z,44.63
2023-05-11T01:35:13.288Z,44.66
2023-05-11T01:36:13.255Z,44.64
2023-05-11T01:37:13.276Z,44.62
2023-05-11T01:38:13.285Z,44.64
2023-05-11T01:39:13.252Z,44.62
2023-05-11T01:40:13.274Z,44.58
2023-05-11T01:41:13.247Z,44.62
2023-05-11T01:42:13.250Z,44.60
2023-05-11T01:43:13.227Z,44.59
2023-05-11T01:44:13.232Z,44.58
2023-05-11T01:45:13.224Z,44.59
2023-05-11T01:46:13.254Z,44.54
2023-05-11T01:47:13.263Z,44.58
2023-05-11T01:48:13.179Z,44.56
2023-05-11T01:49:13.206Z,44.56
2023-05-11T01:50:13.194Z,44.54
2023-05-11T01:51:13.180Z,44.52
2023-05-11T01:52:13.157Z,44.52
2023-05-11T01:53:13.156Z,44.52
2023-05-11T01:54:13.175Z,44.50
2023-05-11T01:55:13.152Z,44.52
2023-05-11T01:56:13.114Z,44.56
2023-05-11T01:57:13.085Z,44.51
2023-05-11T01:58:13.091Z,44.47
2023-05-11T01:59:13.076Z,44.50
2023-05-11T02:00:13.567Z,44.42
2023-05-11T02:01:13.138Z,44.43
2023-05-11T02:02:13.105Z,44.45
2023-05-11T02:03:13.155Z,44.42
2023-05-11T02:04:13.074Z,44.41
2023-05-11T02:05:13.044Z,44.43
2023-05-11T02:06:13.063Z,44.44
2023-05-11T02:07:13.019Z,44.41
2023-05-11T02:08:13.013Z,44.40
2023-05-11T02:09:13.041Z,44.37
2023-05-11T02:10:13.023Z,44.40
2023-05-11T02:11:13.019Z,44.37
2023-05-11T02:12:13.028Z,44.37
2023-05-11T02:13:13.029Z,44.33
2023-05-11T02:14:12.994Z,44.40
2023-05-11T02:15:12.993Z,44.36
2023-05-11T02:16:13.018Z,44.34
2023-05-11T02:17:13.008Z,44.31
2023-05-11T02:18:12.964Z,44.37
2023-05-11T02:19:12.969Z,44.29
2023-05-11T02:20:12.951Z,44.31
2023-05-11T02:21:12.963Z,44.28
2023-05-11T02:22:12.988Z,44.32
2023-05-11T02:23:12.955Z,44.29
2023-05-11T02:24:12.945Z,44.29
2023-05-11T02:25:12.921Z,44.24
2023-05-11T02:26:12.901Z,44.24
2023-05-11T02:27:12.923Z,44.21
2023-05-11T02:28:12.910Z,44.22
2023-05-11T02:29:12.893Z,44.21
2023-05-11T02:30:13.113Z,44.24
2023-05-11T02:31:12.884Z,44.22
2023-05-11T02:32:12.854Z,44.18
2023-05-11T02:33:12.857Z,44.24
2023-05-11T02:34:12.843Z,44.19
2023-05-11T02:35:13.126Z,44.22
2023-05-11T02:36:12.822Z,44.20
2023-05-11T02:37:12.851Z,44.18
2023-05-11T02:38:12.838Z,44.17
2023-05-11T02:39:12.854Z,44.10
2023-05-11T02:40:12.841Z,44.13
2023-05-11T02:41:12.818Z,44.11
2023-05-11T02:42:12.842Z,44.10
2023-05-11T02:43:12.789Z,44.14
2023-05-11T02:44:12.778Z,44.14
2023-05-11T02:45:12.780Z,44.11
2023-05-11T02:46:12.767Z,44.15
2023-05-11T02:47:12.785Z,44.09
2023-05-11T02:48:12.773Z,44.05
2023-05-11T02:49:12.766Z,44.09
2023-05-11T02:50:12.757Z,44.06
2023-05-11T02:51:12.762Z,44.06
2023-05-11T02:52:12.734Z,44.04
2023-05-11T02:53:12.709Z,44.03
2023-05-11T02:54:12.716Z,44.03
2023-05-11T02:55:13.106Z,44.05
2023-05-11T02:56:12.710Z,44.05
2023-05-11T02:57:12.687Z,43.99
2023-05-11T02:58:12.721Z,44.00
2023-05-11T02:59:12.674Z,44.06
2023-05-11T03:00:12.692Z,43.97
2023-05-11T03:01:12.724Z,43.99
2023-05-11T03:02:12.736Z,43.98
2023-05-11T03:03:12.704Z,43.98
2023-05-11T03:04:12.628Z,43.99
2023-05-11T03:05:12.643Z,43.91
2023-05-11T03:06:12.629Z,43.99
2023-05-11T03:07:12.627Z,43.95
2023-05-11T03:08:12.613Z,43.94
2023-05-11T03:09:12.606Z,43.93
2023-05-11T03:10:12.600Z,43.92
2023-05-11T03:11:12.602Z,43.87
2023-05-11T03:12:12.598Z,43.91
2023-05-11T03:13:12.567Z,43.88
2023-05-11T03:14:12.560Z,43.91
2023-05-11T03:15:12.548Z,43.86
2023-05-11T03:16:12.590Z,43.84
2023-05-11T03:17:12.528Z,43.87
2023-05-11T03:18:12.557Z,43.84
2023-05-11T03:19:12.527Z,43.86
2023-05-11T03:20:12.604Z,43.84
2023-05-11T03:21:12.525Z,43.83
2023-05-11T03:22:12.537Z,43.84
2023-05-11T03:23:12.524Z,43.84
2023-05-11T03:24:12.507Z,43.79
2023-05-11T03:25:12.473Z,43.80
2023-05-11T03:26:12.504Z,43.79
2023-05-11T03:27:12.454Z,43.80
2023-05-11T03:28:13.109Z,43.81
2023-05-11T03:29:12.464Z,43.76
2023-05-11T03:30:12.443Z,43.80
2023-05-11T03:31:12.447Z,43.78
2023-05-11T03:32:12.503Z,43.76
2023-05-11T03:33:12.472Z,43.77
2023-05-11T03:34:12.486Z,43.76
2023-05-11T03:35:12.481Z,43.75
2023-05-11T03:36:12.474Z,43.75
2023-05-11T03:37:12.482Z,43.70
2023-05-11T03:38:12.519Z,43.73
2023-05-11T03:39:12.497Z,43.73
2023-05-11T03:40:12.532Z,43.73
2023-05-11T03:41:12.569Z,43.69
2023-05-11T03:42:12.603Z,43.71
2023-05-11T03:43:12.593Z,43.70
2023-05-11T03:44:12.593Z,43.65
2023-05-11T03:45:12.635Z,43.70
2023-05-11T03:46:12.717Z,43.66
2023-05-11T03:47:12.623Z,43.65
2023-05-11T03:48:12.655Z,43.65
2023-05-11T03:49:13.718Z,43.66
2023-05-11T03:50:12.724Z,43.62
2023-05-11T03:51:12.711Z,43.65
2023-05-11T03:52:12.713Z,43.62
2023-05-11T03:53:12.777Z,43.62
2023-05-11T03:54:12.738Z,43.65
2023-05-11T03:55:12.765Z,43.55
2023-05-11T03:56:12.797Z,43.59
2023-05-11T03:57:12.802Z,43.59
2023-05-11T03:58:12.807Z,43.55
2023-05-11T03:59:12.823Z,43.62
2023-05-11T04:00:12.814Z,43.61
2023-05-11T04:01:12.884Z,43.59
2023-05-11T04:02:12.886Z,43.54
2023-05-11T04:03:12.963Z,43.55
2023-05-11T04:04:12.908Z,43.54
2023-05-11T04:05:13.145Z,43.51
2023-05-11T04:06:12.902Z,43.51
2023-05-11T04:07:12.950Z,43.53
2023-05-11T04:08:12.945Z,43.54
2023-05-11T04:09:12.945Z,43.53
2023-05-11T04:10:12.960Z,43.51
2023-05-11T04:11:12.982Z,43.49
2023-05-11T04:12:12.978Z,43.44
2023-05-11T04:13:13.018Z,43.43
2023-05-11T04:14:13.037Z,43.46
2023-05-11T04:15:13.054Z,43.44
2023-05-11T04:16:13.114Z,43.47
2023-05-11T04:17:13.072Z,43.42
2023-05-11T04:18:13.042Z,43.48
2023-05-11T04:19:13.079Z,43.46
2023-05-11T04:20:13.065Z,43.46
2023-05-11T04:21:13.092Z,43.42
2023-05-11T04:22:13.135Z,43.43
2023-05-11T04:23:13.184Z,43.43
2023-05-11T04:24:13.166Z,43.42
2023-05-11T04:25:13.213Z,43.43
2023-05-11T04:26:13.171Z,43.39
2023-05-11T04:27:13.222Z,43.40
2023-05-11T04:28:13.219Z,43.33
2023-05-11T04:29:13.221Z,43.39
2023-05-11T04:30:13.252Z,43.39
2023-05-11T04:31:13.324Z,43.33
2023-05-11T04:32:13.282Z,43.36
2023-05-11T04:33:13.292Z,43.36
2023-05-11T04:34:13.284Z,43.33
2023-05-11T04:35:13.635Z,43.35
2023-05-11T04:36:13.327Z,43.35
2023-05-11T04:37:13.357Z,43.35
2023-05-11T04:38:13.363Z,43.32
2023-05-11T04:39:13.354Z,43.31
2023-05-11T04:40:13.683Z,43.29
2023-05-11T04:41:13.416Z,43.31
2023-05-11T04:42:13.459Z,43.28
2023-05-11T04:43:13.443Z,43.28
2023-05-11T04:44:13.450Z,43.29
2023-05-11T04:45:13.664Z,43.29
2023-05-11T04:46:13.530Z,43.31
2023-05-11T04:47:13.514Z,43.21
2023-05-11T04:48:13.562Z,43.23
2023-05-11T04:49:13.576Z,43.25
2023-05-11T04:50:13.553Z,43.24
2023-05-11T04:51:13.577Z,43.21
2023-05-11T04:52:13.618Z,43.26
2023-05-11T04:53:13.630Z,43.22
2023-05-11T04:54:13.651Z,43.18
2023-05-11T04:55:13.682Z,43.18
2023-05-11T04:56:13.721Z,43.15
2023-05-11T04:57:13.752Z,43.17
2023-05-11T04:58:13.784Z,43.18
2023-05-11T04:59:13.786Z,43.12
2023-05-11T05:00:14.210Z,42.29
2023-05-11T05:01:13.861Z,42.13
2023-05-11T05:02:13.868Z,42.22
2023-05-11T05:03:13.941Z,42.30
2023-05-11T05:04:14.022Z,41.63
2023-05-11T05:05:14.048Z,41.85
2023-05-11T05:06:14.078Z,42.48
2023-05-11T05:07:14.081Z,42.60
2023-05-11T05:08:14.085Z,43.15
2023-05-11T05:09:14.147Z,43.37
2023-05-11T05:10:14.181Z,43.46
2023-05-11T05:11:14.135Z,43.48
2023-05-11T05:12:14.214Z,43.54
2023-05-11T05:13:14.210Z,43.56
2023-05-11T05:14:14.236Z,43.56
2023-05-11T05:15:14.246Z,43.49
2023-05-11T05:16:14.264Z,43.44
2023-05-11T05:17:14.274Z,43.47
2023-05-11T05:18:14.309Z,43.36
2023-05-11T05:19:14.254Z,43.37
2023-05-11T05:20:14.680Z,43.23
2023-05-11T05:21:14.234Z,43.23
2023-05-11T05:22:14.225Z,43.14
2023-05-11T05:23:14.270Z,43.14
2023-05-11T05:24:14.251Z,43.12
2023-05-11T05:25:14.266Z,43.07
2023-05-11T05:26:14.296Z,42.99
2023-05-11T05:27:14.326Z,43.02
2023-05-11T05:28:14.340Z,42.98
2023-05-11T05:29:14.374Z,42.99
2023-05-11T05:30:14.407Z,42.93
2023-05-11T05:31:14.408Z,42.84
2023-05-11T05:32:14.412Z,42.83
2023-05-11T05:33:14.459Z,42.87
2023-05-11T05:34:16.468Z,42.89
2023-05-11T05:35:14.681Z,42.62
2023-05-11T05:36:14.457Z,42.81
2023-05-11T05:37:14.492Z,42.79
2023-05-11T05:38:14.536Z,42.79
2023-05-11T05:39:14.518Z,42.81
2023-05-11T05:40:14.713Z,42.83
2023-05-11T05:41:14.575Z,42.77
2023-05-11T05:42:14.549Z,42.77
2023-05-11T05:43:14.599Z,42.82
2023-05-11T05:44:14.607Z,42.73
2023-05-11T05:45:14.998Z,43.00
2023-05-11T05:46:14.685Z,43.14
2023-05-11T05:47:14.680Z,43.10
2023-05-11T05:48:14.751Z,43.17
2023-05-11T05:49:14.824Z,43.22
2023-05-11T05:50:15.311Z,43.38
2023-05-11T05:51:14.945Z,43.68
2023-05-11T05:52:14.992Z,43.77
2023-05-11T05:53:15.066Z,43.68
2023-05-11T05:54:15.085Z,43.91
2023-05-11T05:55:15.202Z,43.80
2023-05-11T05:56:15.179Z,43.97
2023-05-11T05:57:16.054Z,44.54
2023-05-11T05:58:15.236Z,45.45
2023-05-11T05:59:15.247Z,44.07
2023-05-11T06:00:15.857Z,44.07
2023-05-11T06:01:15.315Z,44.71
2023-05-11T06:02:15.336Z,45.03
2023-05-11T06:03:15.394Z,44.61
2023-05-11T06:04:15.418Z,44.34
2023-05-11T06:05:15.718Z,44.35
2023-05-11T06:06:15.289Z,44.44
2023-05-11T06:07:15.417Z,44.56
2023-05-11T06:08:15.410Z,44.71
2023-05-11T06:09:15.455Z,44.72
2023-05-11T06:10:15.849Z,44.65
2023-05-11T06:11:15.620Z,44.71
2023-05-11T06:12:15.661Z,44.75
2023-05-11T06:13:15.692Z,44.61
2023-05-11T06:14:15.754Z,44.86
2023-05-11T06:15:16.228Z,44.70
2023-05-11T06:16:15.927Z,44.59
2023-05-11T06:17:15.871Z,44.68
2023-05-11T06:18:15.957Z,44.67
2023-05-11T06:19:15.987Z,44.79
2023-05-11T06:20:16.376Z,44.85
2023-05-11T06:21:16.053Z,44.79
2023-05-11T06:22:16.120Z,44.76
2023-05-11T06:23:16.128Z,44.83
2023-05-11T06:24:16.187Z,44.96
2023-05-11T06:25:16.228Z,45.01
2023-05-11T06:26:16.251Z,44.89
2023-05-11T06:27:18.225Z,45.15
2023-05-11T06:28:16.305Z,45.21
2023-05-11T06:29:16.326Z,45.20
2023-05-11T06:30:16.595Z,45.67
2023-05-11T06:31:16.392Z,45.35
2023-05-11T06:32:16.363Z,45.38
2023-05-11T06:33:16.434Z,45.65
2023-05-11T06:34:16.412Z,45.52
2023-05-11T06:35:16.439Z,45.44
2023-05-11T06:36:16.715Z,45.45
2023-05-11T06:37:16.497Z,45.34
2023-05-11T06:38:16.530Z,45.44
2023-05-11T06:39:16.576Z,45.34
2023-05-11T06:40:16.886Z,45.43
2023-05-11T06:41:16.560Z,45.51
2023-05-11T06:42:16.583Z,45.44
2023-05-11T06:43:16.672Z,45.31
2023-05-11T06:44:16.654Z,45.49
2023-05-11T06:45:16.718Z,45.35
2023-05-11T06:46:16.760Z,45.36
2023-05-11T06:47:16.716Z,45.34
2023-05-11T06:48:16.727Z,45.41
2023-05-11T06:49:16.754Z,45.41
2023-05-11T06:50:17.528Z,45.45
2023-05-11T06:51:16.818Z,45.48
2023-05-11T06:52:16.806Z,45.51
2023-05-11T06:53:16.837Z,45.81
2023-05-11T06:54:16.847Z,45.74
2023-05-11T06:55:16.827Z,45.96
2023-05-11T06:56:16.809Z,46.11
2023-05-11T06:57:16.822Z,46.41
2023-05-11T06:58:16.828Z,46.24
2023-05-11T06:59:16.988Z,46.10
2023-05-11T07:00:17.173Z,45.84
2023-05-11T07:01:16.921Z,46.02
2023-05-11T07:02:16.887Z,46.37
2023-05-11T07:03:16.967Z,46.00
2023-05-11T07:04:16.899Z,45.89
2023-05-11T07:05:16.896Z,45.87
2023-05-11T07:06:17.292Z,45.99
2023-05-11T07:07:16.907Z,45.98
2023-05-11T07:08:16.890Z,45.91
2023-05-11T07:09:16.928Z,45.99
2023-05-11T07:10:17.182Z,46.22
2023-05-11T07:11:17.272Z,46.32
2023-05-11T07:12:17.038Z,46.40
2023-05-11T07:13:17.084Z,46.34
2023-05-11T07:14:17.180Z,46.23
2023-05-11T07:15:17.233Z,46.34
2023-05-11T07:16:17.746Z,46.56
2023-05-11T07:17:17.341Z,46.63
2023-05-11T07:18:17.457Z,46.63
2023-05-11T07:19:17.476Z,46.74
2023-05-11T07:20:17.811Z,46.85
2023-05-11T07:21:17.757Z,46.90
2023-05-11T07:22:17.647Z,47.01
2023-05-11T07:23:17.715Z,46.94
2023-05-11T07:24:17.779Z,47.04
2023-05-11T07:25:17.796Z,47.01
2023-05-11T07:26:18.253Z,47.02
2023-05-11T07:27:17.929Z,47.07
2023-05-11T07:28:17.986Z,47.13
2023-05-11T07:29:18.033Z,46.96
2023-05-11T07:30:19.011Z,46.96
2023-05-11T07:31:18.261Z,47.10
2023-05-11T07:32:18.141Z,47.63
2023-05-11T07:33:18.207Z,47.14
2023-05-11T07:34:18.239Z,47.19
2023-05-11T07:35:18.310Z,47.24
2023-05-11T07:36:18.766Z,47.30
2023-05-11T07:37:18.421Z,47.23
2023-05-11T07:38:18.421Z,47.37
2023-05-11T07:39:18.472Z,47.26
2023-05-11T07:40:18.655Z,47.38
2023-05-11T07:41:18.765Z,47.38
2023-05-11T07:42:18.602Z,47.50
2023-05-11T07:43:18.618Z,47.56
2023-05-11T07:44:18.631Z,47.60
2023-05-11T07:45:18.687Z,47.76
2023-05-11T07:46:18.806Z,48.07
2023-05-11T07:47:18.744Z,47.85
2023-05-11T07:48:18.730Z,47.83
2023-05-11T07:49:25.507Z,48.25
2023-05-11T07:50:21.553Z,48.60
2023-05-11T07:51:18.748Z,48.03
2023-05-11T07:52:18.746Z,48.27
2023-05-11T07:53:18.768Z,48.05
2023-05-11T07:54:20.250Z,47.97
2023-05-11T07:55:18.932Z,47.76
2023-05-11T07:56:18.760Z,47.88
2023-05-11T07:57:18.710Z,47.65
2023-05-11T07:58:18.726Z,47.83
2023-05-11T07:59:18.717Z,47.62
2023-05-11T08:00:18.916Z,47.77
2023-05-11T08:01:18.796Z,47.69
2023-05-11T08:02:18.762Z,47.93
2023-05-11T08:03:18.686Z,48.29
2023-05-11T08:04:18.695Z,47.80
2023-05-11T08:05:18.826Z,47.76
2023-05-11T08:06:18.709Z,47.87
2023-05-11T08:07:18.652Z,47.83
2023-05-11T08:08:18.673Z,48.02
2023-05-11T08:09:18.649Z,48.04
2023-05-11T08:10:18.602Z,48.45
2023-05-11T08:11:18.604Z,48.14
2023-05-11T08:12:18.606Z,47.46
2023-05-11T08:13:18.604Z,45.47
2023-05-11T08:14:18.627Z,43.89
2023-05-11T08:15:18.718Z,46.21
2023-05-11T08:16:18.824Z,46.29
2023-05-11T08:17:18.606Z,46.37
2023-05-11T08:18:18.621Z,46.43
2023-05-11T08:19:18.555Z,46.43
2023-05-11T08:20:18.574Z,46.49
2023-05-11T08:21:18.760Z,46.44
2023-05-11T08:22:18.563Z,46.45
2023-05-11T08:23:18.513Z,46.47
2023-05-11T08:24:18.553Z,46.52
2023-05-11T08:25:18.674Z,46.53
2023-05-11T08:26:18.524Z,46.59
2023-05-11T08:27:18.524Z,46.61
2023-05-11T08:28:18.489Z,46.59
2023-05-11T08:29:18.470Z,46.68
2023-05-11T08:30:18.501Z,46.67
2023-05-11T08:31:18.542Z,46.74
2023-05-11T08:32:18.491Z,46.68
2023-05-11T08:34:20.170Z,46.78
2023-05-11T08:35:18.647Z,46.81
2023-05-11T08:36:18.792Z,46.85
2023-05-11T08:37:18.436Z,46.87
2023-05-11T08:38:18.442Z,46.94
2023-05-11T08:39:28.548Z,46.95
2023-05-11T08:40:19.522Z,47.15
2023-05-11T08:41:18.413Z,46.24
2023-05-11T08:42:18.406Z,44.80
2023-05-11T08:43:18.421Z,44.74
2023-05-11T08:44:18.402Z,44.90
2023-05-11T08:45:18.581Z,44.65
2023-05-11T08:46:18.891Z,41.44
2023-05-11T08:47:23.199Z,40.29
2023-05-11T08:48:19.425Z,38.49
2023-05-11T08:49:18.359Z,40.28
2023-05-11T08:50:18.407Z,40.83
2023-05-11T08:51:18.399Z,42.03
2023-05-11T08:52:18.400Z,42.61
2023-05-11T08:53:18.334Z,43.44
2023-05-11T08:54:18.315Z,42.35
2023-05-11T08:55:18.508Z,42.36
2023-05-11T08:56:18.799Z,43.27
2023-05-11T08:57:18.323Z,43.07
2023-05-11T08:58:18.305Z,42.92
2023-05-11T08:59:18.313Z,43.47
2023-05-11T09:00:18.352Z,42.90
2023-05-11T09:01:18.825Z,43.33
2023-05-11T09:02:18.395Z,43.68
2023-05-11T09:03:18.438Z,43.85
2023-05-11T09:04:18.498Z,44.00
2023-05-11T09:05:18.668Z,43.97
2023-05-11T09:06:18.804Z,44.08
2023-05-11T09:07:18.753Z,44.11
2023-05-11T09:08:18.566Z,44.04
2023-05-11T09:09:18.614Z,44.06
2023-05-11T09:10:18.601Z,44.06
2023-05-11T09:11:18.828Z,43.92
2023-05-11T09:12:18.610Z,44.16
2023-05-11T09:13:18.597Z,44.15
2023-05-11T09:14:18.597Z,44.19
2023-05-11T09:15:18.882Z,44.12
2023-05-11T09:16:35.582Z,44.08
2023-05-11T09:17:19.587Z,44.08
2023-05-11T09:18:18.621Z,44.07
2023-05-11T09:19:18.607Z,44.07
2023-05-11T09:20:18.819Z,44.05
2023-05-11T09:21:18.561Z,44.03
2023-05-11T09:22:18.812Z,44.05
2023-05-11T09:23:18.546Z,44.08
2023-05-11T09:24:18.565Z,44.05
2023-05-11T09:25:18.777Z,44.04
2023-05-11T09:26:18.570Z,44.03
2023-05-11T09:27:21.334Z,44.04
2023-05-11T09:29:19.511Z,44.02
2023-05-11T09:31:18.553Z,43.98
2023-05-11T09:32:18.834Z,44.02
2023-05-11T09:33:18.487Z,44.03
2023-05-11T09:34:18.458Z,44.04
2023-05-11T09:35:18.700Z,43.98
2023-05-11T09:36:18.446Z,43.96
2023-05-11T09:37:18.836Z,43.98
2023-05-11T09:38:18.452Z,43.99
2023-05-11T09:40:26.769Z,43.94
2023-05-11T09:41:19.437Z,43.92
2023-05-11T09:42:18.841Z,43.89
2023-05-11T09:43:18.477Z,43.89
2023-05-11T09:44:18.433Z,43.92
2023-05-11T09:45:18.543Z,43.84
2023-05-11T09:46:18.424Z,43.85
2023-05-11T09:47:18.824Z,43.90
2023-05-11T09:48:18.454Z,43.46
2023-05-11T09:49:18.381Z,42.56
2023-05-11T09:50:25.691Z,41.68
2023-05-11T09:51:19.353Z,40.99
2023-05-11T09:52:18.868Z,40.89
2023-05-11T09:53:18.365Z,41.38
2023-05-11T09:54:18.338Z,40.99
2023-05-11T09:55:18.535Z,41.04
2023-05-11T09:56:18.344Z,41.03
2023-05-11T09:57:18.327Z,41.09
2023-05-11T09:58:18.287Z,41.00
2023-05-11T09:59:18.287Z,41.00
2023-05-11T10:00:18.311Z,41.50
2023-05-11T10:01:18.362Z,39.46
2023-05-11T10:02:18.378Z,39.82
2023-05-11T10:03:18.426Z,39.35
2023-05-11T10:04:23.536Z,38.87
2023-05-11T10:05:19.371Z,39.67
2023-05-11T10:06:20.204Z,39.64
2023-05-11T10:07:18.346Z,39.70
2023-05-11T10:08:18.221Z,39.84
2023-05-11T10:09:18.220Z,40.07
2023-05-11T10:10:18.237Z,40.42
2023-05-11T10:11:18.244Z,40.20
2023-05-11T10:12:18.386Z,39.91
2023-05-11T10:13:18.202Z,39.89
2023-05-11T10:14:18.240Z,39.50
2023-05-11T10:15:18.365Z,39.46
2023-05-11T10:16:18.362Z,39.33
2023-05-11T10:17:18.820Z,39.63
2023-05-11T10:18:20.257Z,39.73
2023-05-11T10:19:18.454Z,39.80
2023-05-11T10:20:18.634Z,39.88
2023-05-11T10:21:18.484Z,39.78
2023-05-11T10:22:18.923Z,39.87
2023-05-11T10:23:18.474Z,39.72
2023-05-11T10:24:20.413Z,39.97
2023-05-11T10:25:18.488Z,39.98
2023-05-11T10:26:18.508Z,40.25
2023-05-11T10:27:18.857Z,40.48
2023-05-11T10:28:18.537Z,40.23
2023-05-11T10:29:18.597Z,40.14
2023-05-11T10:30:18.931Z,40.22
2023-05-11T10:31:18.699Z,40.31
2023-05-11T10:32:18.861Z,40.58
2023-05-11T10:33:18.825Z,40.62
2023-05-11T10:34:18.879Z,40.76
2023-05-11T10:35:18.838Z,41.15
2023-05-11T10:36:19.414Z,41.39
2023-05-11T10:37:19.377Z,41.49
2023-05-11T10:38:19.009Z,41.64
2023-05-11T10:39:19.043Z,41.73
2023-05-11T10:40:19.226Z,41.67
2023-05-11T10:41:19.134Z,41.73
2023-05-11T10:42:19.384Z,41.80
2023-05-11T10:43:19.156Z,41.75
2023-05-11T10:44:19.186Z,41.73
2023-05-11T10:45:19.200Z,41.70
2023-05-11T10:46:19.237Z,41.66
2023-05-11T10:47:19.374Z,41.61
2023-05-11T10:48:19.230Z,41.60
2023-05-11T10:49:19.260Z,41.61
2023-05-11T10:50:19.482Z,41.60
2023-05-11T10:51:19.356Z,41.55
2023-05-11T10:52:19.448Z,41.48
2023-05-11T10:53:19.501Z,41.48
2023-05-11T10:54:19.564Z,41.46
2023-05-11T10:55:19.699Z,41.42
2023-05-11T10:56:19.649Z,41.34
2023-05-11T10:57:19.856Z,41.37
2023-05-11T10:58:19.788Z,41.36
2023-05-11T10:59:19.820Z,41.38
2023-05-11T11:00:20.104Z,41.33
2023-05-11T11:01:19.970Z,41.34
2023-05-11T11:02:20.000Z,41.27
2023-05-11T11:03:20.008Z,41.32
2023-05-11T11:04:20.069Z,41.24
2023-05-11T11:05:20.347Z,41.25
2023-05-11T11:06:20.158Z,41.26
2023-05-11T11:07:20.373Z,41.22
2023-05-11T11:08:20.217Z,41.22
2023-05-11T11:09:20.237Z,41.19
2023-05-11T11:10:20.447Z,41.19
2023-05-11T11:11:20.285Z,41.16
2023-05-11T11:12:20.362Z,41.11
2023-05-11T11:13:20.375Z,41.11
2023-05-11T11:14:20.375Z,41.15
2023-05-11T11:15:20.515Z,41.21
2023-05-11T11:16:20.377Z,41.17
2023-05-11T11:17:20.932Z,41.13
2023-05-11T11:18:20.495Z,41.13
2023-05-11T11:19:20.453Z,41.13
2023-05-11T11:20:20.484Z,41.11
2023-05-11T11:21:20.511Z,41.06
2023-05-11T11:22:20.509Z,41.11
2023-05-11T11:23:20.506Z,41.08
2023-05-11T11:24:20.537Z,41.09
2023-05-11T11:25:20.699Z,41.08
2023-05-11T11:26:20.547Z,41.03
2023-05-11T11:27:20.873Z,41.08
2023-05-11T11:28:20.568Z,41.03
2023-05-11T11:29:20.562Z,41.03
2023-05-11T11:30:20.610Z,41.06
2023-05-11T11:31:20.573Z,41.06
2023-05-11T11:32:20.563Z,41.04
2023-05-11T11:33:20.568Z,41.07
2023-05-11T11:34:20.598Z,41.02
2023-05-11T11:35:20.592Z,40.99
2023-05-11T11:36:20.595Z,41.00
2023-05-11T11:37:20.886Z,41.08
2023-05-11T11:38:20.595Z,40.80
2023-05-11T11:39:20.574Z,41.04
2023-05-11T11:40:20.596Z,41.00
2023-05-11T11:41:20.603Z,40.97
2023-05-11T11:42:20.902Z,41.03
2023-05-11T11:43:20.593Z,41.01
2023-05-11T11:44:20.597Z,41.03
2023-05-11T11:45:20.727Z,41.01
2023-05-11T11:46:20.587Z,40.99
2023-05-11T11:47:20.572Z,41.01
2023-05-11T11:48:20.573Z,41.03
2023-05-11T11:49:20.585Z,41.03
2023-05-11T11:50:20.564Z,41.00
2023-05-11T11:51:20.537Z,40.97
2023-05-11T11:52:20.882Z,40.94
2023-05-11T11:53:20.561Z,41.03
2023-05-11T11:54:20.577Z,40.99
2023-05-11T11:55:20.705Z,40.96
2023-05-11T11:56:20.597Z,40.99
2023-05-11T11:57:20.580Z,40.99
2023-05-11T11:58:20.585Z,41.00
2023-05-11T11:59:20.609Z,40.98
2023-05-11T12:00:20.664Z,40.98
2023-05-11T12:01:20.675Z,40.99
2023-05-11T12:02:20.708Z,40.96
2023-05-11T12:03:20.841Z,40.98
2023-05-11T12:04:20.863Z,40.98
2023-05-11T12:05:21.252Z,40.99
2023-05-11T12:06:20.913Z,40.99
2023-05-11T12:07:21.439Z,40.96
2023-05-11T12:08:20.988Z,41.01
2023-05-11T12:09:21.065Z,41.00
2023-05-11T12:10:21.088Z,40.96
2023-05-11T12:11:21.155Z,40.96
2023-05-11T12:12:21.223Z,40.98
2023-05-11T12:13:21.261Z,40.96
2023-05-11T12:14:21.368Z,40.95
2023-05-11T12:15:21.350Z,40.97
2023-05-11T12:16:21.489Z,40.97
2023-05-11T12:17:21.534Z,40.94
2023-05-11T12:18:21.590Z,40.94
2023-05-11T12:19:21.597Z,40.93
2023-05-11T12:20:21.697Z,40.97
2023-05-11T12:21:21.733Z,40.94
2023-05-11T12:22:21.909Z,40.90
2023-05-11T12:23:21.852Z,40.95
2023-05-11T12:24:21.909Z,40.97
2023-05-11T12:25:22.259Z,40.96
2023-05-11T12:26:21.994Z,40.95
2023-05-11T12:27:22.077Z,40.93
2023-05-11T12:28:22.131Z,40.95
2023-05-11T12:29:22.194Z,40.97
2023-05-11T12:30:22.220Z,40.93
2023-05-11T12:31:22.331Z,40.96
2023-05-11T12:32:22.404Z,40.95
2023-05-11T12:33:22.483Z,40.93
2023-05-11T12:34:22.522Z,40.90
2023-05-11T12:35:22.578Z,40.92
2023-05-11T12:36:22.614Z,40.96
2023-05-11T12:37:22.935Z,40.95
2023-05-11T12:38:22.724Z,40.92
2023-05-11T12:39:22.827Z,40.92
2023-05-11T12:40:22.831Z,40.95
2023-05-11T12:41:22.915Z,40.93
2023-05-11T12:42:23.418Z,40.93
2023-05-11T12:43:23.040Z,40.92
2023-05-11T12:44:23.097Z,40.90
2023-05-11T12:45:23.153Z,40.93
2023-05-11T12:46:23.287Z,40.92
2023-05-11T12:47:23.326Z,40.92
2023-05-11T12:48:23.402Z,40.92
2023-05-11T12:49:25.364Z,40.92
2023-05-11T12:50:23.408Z,40.92
2023-05-11T12:51:23.376Z,40.90
2023-05-11T12:52:23.378Z,40.89
2023-05-11T12:53:23.360Z,40.93
2023-05-11T12:54:23.349Z,40.88
2023-05-11T12:55:23.361Z,40.88
2023-05-11T12:56:23.354Z,40.90